Time;durP1;ratioP1;P1;durP2;ratioP2;P2;SDS_P1;SDS_P2;PMS_P1;PMS_P2;Temp;Humidity;BMP_temperature;BMP_pressure;BME280_temperature;BME280_humidity;BME280_pressure;Samples;Min_cycle;Max_cycle;Signal;HPM_P1;HPM_P2
2023/12/23 12:53:49;;;;;;;0.73;0.40;;;7.50;99.90;;;;;;7641790;19;20374;-73
2023/12/23 12:56:25;;;;;;;1.75;1.08;;;7.60;99.90;;;;;;7645433;19;21000;-73
2023/12/23 12:59:19;;;;;;;0.82;0.70;;;7.70;99.90;;;;;;7621856;19;20608;-74
2023/12/23 13:02:13;;;;;;;0.82;0.52;;;7.70;99.90;;;;;;7651072;19;20010;-72
2023/12/23 13:04:47;;;;;;;0.60;0.60;;;7.80;99.90;;;;;;7644202;19;21098;-73
2023/12/23 13:07:24;;;;;;;0.80;0.50;;;7.80;99.90;;;;;;7651610;19;20370;-73
2023/12/23 13:10:03;;;;;;;0.70;0.63;;;7.80;99.90;;;;;;7624773;19;20029;-74
2023/12/23 13:12:37;;;;;;;5.70;0.77;;;7.90;99.90;;;;;;7640188;19;20018;-73
2023/12/23 13:15:14;;;;;;;2.30;0.32;;;7.80;99.90;;;;;;7651345;19;20246;-74
2023/12/23 13:17:47;;;;;;;0.40;0.40;;;7.90;99.90;;;;;;7630539;19;20018;-73
2023/12/23 13:20:21;;;;;;;1.15;0.55;;;7.90;99.90;;;;;;7642733;19;20067;-74
2023/12/23 13:22:54;;;;;;;0.57;0.30;;;8.00;99.90;;;;;;7635185;19;20010;-76
2023/12/23 13:25:28;;;;;;;0.73;0.47;;;8.00;99.90;;;;;;7638329;19;20033;-76
2023/12/23 13:28:07;;;;;;;0.20;0.20;;;8.00;99.90;;;;;;7670654;19;20010;-75
2023/12/23 13:30:39;;;;;;;1.35;0.40;;;8.00;99.90;;;;;;7609606;19;20531;-75
2023/12/23 13:33:12;;;;;;;0.30;0.30;;;8.00;99.90;;;;;;7647649;19;20018;-76
2023/12/23 13:35:48;;;;;;;0.88;0.40;;;8.00;99.90;;;;;;7649017;19;20014;-74
2023/12/23 13:38:25;;;;;;;0.43;0.43;;;8.00;99.90;;;;;;7632952;19;20026;-74
2023/12/23 13:40:59;;;;;;;1.20;0.82;;;8.00;99.90;;;;;;7639375;19;20465;-74
2023/12/23 13:43:31;;;;;;;0.40;0.40;;;8.00;99.90;;;;;;7619192;19;20006;-76
2023/12/23 13:46:07;;;;;;;0.40;0.40;;;8.00;99.90;;;;;;7620894;19;20672;-76
2023/12/23 13:48:40;;;;;;;0.40;0.40;;;8.00;99.90;;;;;;7608574;19;21360;-75
2023/12/23 13:51:13;;;;;;;1.50;0.60;;;7.90;99.90;;;;;;7609777;19;20014;-72
2023/12/23 13:53:46;;;;;;;0.45;0.20;;;7.90;99.90;;;;;;7625143;19;20014;-74
2023/12/23 13:56:19;;;;;;;0.80;0.50;;;8.00;99.90;;;;;;7628529;19;20494;-75
2023/12/23 13:58:52;;;;;;;0.70;0.60;;;7.90;99.90;;;;;;7629874;19;20022;-75
2023/12/23 14:01:24;;;;;;;0.73;0.30;;;7.90;99.90;;;;;;7605922;19;20026;-76
2023/12/23 14:04:00;;;;;;;0.50;0.30;;;8.00;99.90;;;;;;7606562;19;20829;-75
2023/12/23 14:06:32;;;;;;;1.23;0.55;;;8.00;99.90;;;;;;7599305;19;20010;-75
2023/12/23 14:09:05;;;;;;;0.85;0.35;;;8.00;99.90;;;;;;7602772;19;20046;-74
2023/12/23 14:11:37;;;;;;;0.60;0.60;;;8.00;99.90;;;;;;7599147;19;20597;-77
2023/12/23 14:14:10;;;;;;;0.95;0.40;;;7.90;99.90;;;;;;7595442;19;20022;-74
2023/12/23 14:16:42;;;;;;;0.38;0.38;;;8.00;99.90;;;;;;7599062;19;20022;-75
2023/12/23 14:19:15;;;;;;;4.65;0.57;;;8.00;99.90;;;;;;7599237;19;20025;-75
2023/12/23 14:21:47;;;;;;;1.05;0.60;;;7.90;99.90;;;;;;7598844;19;20018;-76
2023/12/23 14:24:20;;;;;;;0.85;0.63;;;8.00;99.90;;;;;;7602236;19;21123;-76
2023/12/23 14:26:52;;;;;;;0.38;0.38;;;7.90;99.90;;;;;;7605121;19;20037;-75
2023/12/23 14:29:25;;;;;;;0.75;0.40;;;7.90;99.90;;;;;;7600692;19;20032;-75
2023/12/23 14:31:57;;;;;;;0.77;0.50;;;7.90;99.90;;;;;;7590201;19;20048;-74
2023/12/23 14:34:30;;;;;;;0.50;0.50;;;7.90;99.90;;;;;;7592678;19;21465;-75
2023/12/23 14:37:03;;;;;;;0.47;0.45;;;7.90;99.90;;;;;;7594037;19;20014;-76
2023/12/23 14:39:36;;;;;;;1.30;0.68;;;7.90;99.90;;;;;;7588111;19;20020;-73
2023/12/23 14:42:09;;;;;;;0.88;0.60;;;7.90;99.90;;;;;;7593058;19;20025;-74
2023/12/23 14:44:42;;;;;;;0.80;0.50;;;7.90;99.90;;;;;;7590829;19;20014;-74
2023/12/23 14:47:14;;;;;;;1.13;0.40;;;7.90;99.90;;;;;;7586554;19;20015;-75
2023/12/23 14:49:47;;;;;;;1.10;0.73;;;7.90;99.90;;;;;;7598763;19;20310;-74
2023/12/23 14:52:20;;;;;;;2.13;0.80;;;7.90;99.90;;;;;;7597090;19;21066;-73
2023/12/23 14:54:52;;;;;;;1.02;0.70;;;7.90;99.90;;;;;;7599675;19;20022;-74
2023/12/23 14:57:25;;;;;;;1.38;0.63;;;7.80;99.90;;;;;;7599393;19;20756;-74
2023/12/23 14:59:58;;;;;;;1.45;0.77;;;7.80;99.90;;;;;;7585369;19;20021;-73
2023/12/23 15:02:33;;;;;;;1.48;0.73;;;7.80;99.90;;;;;;7609931;19;20026;-73
2023/12/23 15:05:07;;;;;;;1.60;0.70;;;7.80;99.90;;;;;;7600884;19;20082;-74
2023/12/23 15:07:39;;;;;;;2.28;0.50;;;7.80;99.90;;;;;;7582802;19;20010;-74
2023/12/23 15:10:13;;;;;;;0.52;0.52;;;7.80;99.90;;;;;;7585136;19;24541;-74
2023/12/23 15:12:45;;;;;;;2.67;0.82;;;7.70;99.90;;;;;;7562932;19;20365;-74
2023/12/23 15:15:17;;;;;;;3.60;0.80;;;7.90;99.90;;;;;;7591716;19;20916;-75
2023/12/23 15:17:50;;;;;;;3.38;1.15;;;7.80;99.90;;;;;;7593794;19;20528;-74
2023/12/23 15:20:22;;;;;;;0.77;0.65;;;7.80;99.90;;;;;;7593505;19;20019;-77
2023/12/23 15:22:55;;;;;;;0.53;0.50;;;7.80;99.90;;;;;;7588548;19;20030;-76
2023/12/23 15:25:28;;;;;;;1.55;0.88;;;7.80;99.90;;;;;;7576791;19;20141;-74
2023/12/23 15:28:00;;;;;;;0.82;0.77;;;7.80;99.90;;;;;;7570984;19;20018;-74
2023/12/23 15:30:32;;;;;;;1.30;0.50;;;7.80;99.90;;;;;;7594150;19;20022;-75
2023/12/23 15:33:04;;;;;;;3.60;0.47;;;7.80;99.90;;;;;;7601287;19;20014;-75
2023/12/23 15:35:37;;;;;;;1.13;0.50;;;7.70;99.90;;;;;;7603529;19;20025;-75
2023/12/23 15:38:09;;;;;;;0.68;0.50;;;7.80;99.90;;;;;;7600651;19;20017;-74
2023/12/23 15:40:41;;;;;;;1.63;0.73;;;7.80;99.90;;;;;;7604821;19;20014;-75
2023/12/23 15:43:14;;;;;;;2.13;1.10;;;;;;;;;;7600452;19;20014;-75
2023/12/23 15:45:47;;;;;;;1.90;0.75;;;;;;;;;;7593656;19;20837;-74
2023/12/23 15:48:20;;;;;;;0.90;0.50;;;;;;;;;;7602656;19;20017;-74
2023/12/23 15:50:53;;;;;;;0.65;0.60;;;;;;;;;;7602616;19;20895;-73
2023/12/23 15:53:26;;;;;;;0.95;0.50;;;;;;;;;;7596470;19;20494;-74
2023/12/23 15:56:01;;;;;;;0.85;0.75;;;;;;;;;;7597211;19;20014;-74
2023/12/23 15:58:34;;;;;;;0.90;0.50;;;;;;;;;;7601657;19;20531;-75
2023/12/23 16:01:07;;;;;;;0.47;0.40;;;;;;;;;;7588151;19;20019;-73
2023/12/23 16:03:41;;;;;;;1.25;0.60;;;;;;;;;;7590940;19;20016;-74
2023/12/23 16:06:14;;;;;;;0.68;0.68;;;;;;;;;;7597315;19;20019;-73
2023/12/23 16:08:47;;;;;;;1.17;0.52;;;;;;;;;;7592269;19;20014;-74
2023/12/23 16:11:20;;;;;;;2.47;0.60;;;;;;;;;;7588557;19;20019;-73
2023/12/23 16:13:53;;;;;;;2.10;0.95;;;;;;;;;;7588518;19;20018;-73
2023/12/23 16:16:26;;;;;;;1.55;0.93;;;;;;;;;;7591662;19;20643;-73
2023/12/23 16:18:58;;;;;;;1.83;0.80;;;;;;;;;;7596122;19;20014;-73
2023/12/23 16:21:31;;;;;;;0.68;0.68;;;;;;;;;;7592150;19;21317;-74
2023/12/23 16:24:05;;;;;;;0.77;0.60;;;;;;;;;;7591010;19;20029;-73
2023/12/23 16:26:38;;;;;;;4.00;0.70;;;;;;;;;;7591694;19;20056;-73
2023/12/23 16:29:11;;;;;;;0.85;0.65;;;;;;;;;;7586519;19;20291;-74
2023/12/23 16:31:44;;;;;;;1.13;0.60;;;;;;;;;;7566673;19;20018;-73
2023/12/23 16:34:16;;;;;;;2.28;0.77;;;;;;;;;;7569371;19;20372;-74
2023/12/23 16:36:50;;;;;;;0.73;0.60;;;;;;;;;;7558035;19;20060;-74
2023/12/23 16:39:23;;;;;;;2.40;0.73;;;;;;;;;;7576818;19;20316;-75
2023/12/23 16:41:56;;;;;;;0.53;0.50;;;;;;;;;;7565342;19;21301;-75
2023/12/23 16:44:28;;;;;;;3.47;0.80;;;;;;;;;;7579860;19;20052;-74
2023/12/23 16:47:01;;;;;;;2.63;1.40;;;;;;;;;;7554765;19;20010;-75
2023/12/23 16:49:34;;;;;;;1.73;1.25;;;;;;;;;;7569144;19;20115;-74
2023/12/23 16:52:13;;;;;;;0.75;0.70;;;7.80;99.90;;;;;;7563887;19;20044;-73
2023/12/23 16:54:47;;;;;;;1.20;0.90;;;7.80;99.90;;;;;;7558393;19;21070;-75
2023/12/23 16:57:20;;;;;;;1.17;0.70;;;7.90;99.90;;;;;;7572595;19;20343;-74
2023/12/23 16:59:53;;;;;;;1.33;1.02;;;;;;;;;;7560781;19;20010;-74
2023/12/23 17:02:25;;;;;;;0.90;0.70;;;7.80;99.90;;;;;;7561889;19;20023;-75
2023/12/23 17:04:58;;;;;;;1.23;0.77;;;;;;;;;;7562085;19;20030;-74
2023/12/23 17:07:30;;;;;;;0.70;0.63;;;7.80;99.90;;;;;;7577064;19;20011;-74
2023/12/23 17:10:03;;;;;;;1.25;0.75;;;;;;;;;;7562246;19;20263;-74
2023/12/23 17:12:36;;;;;;;0.95;0.77;;;;;;;;;;7567624;19;20832;-73
2023/12/23 17:15:10;;;;;;;2.67;1.17;;;;;;;;;;7566175;19;20050;-73
2023/12/23 17:17:43;;;;;;;3.85;1.17;;;;;;;;;;7571032;19;20472;-74
2023/12/23 17:20:16;;;;;;;0.70;0.70;;;;;;;;;;7575306;19;20700;-74
2023/12/23 17:22:53;;;;;;;0.80;0.57;;;;;;;;;;7573452;19;20018;-74
2023/12/23 17:25:27;;;;;;;1.33;0.73;;;;;;;;;;7568969;19;20809;-74
2023/12/23 17:28:00;;;;;;;1.70;0.60;;;;;;;;;;7556678;19;20098;-74
2023/12/23 17:30:33;;;;;;;1.10;0.70;;;;;;;;;;7571892;19;20025;-75
2023/12/23 17:33:11;;;;;;;0.90;0.80;;;;;;;;;;7550668;19;20011;-73
2023/12/23 17:35:45;;;;;;;1.23;0.90;;;;;;;;;;7533186;19;20026;-75
2023/12/23 17:38:18;;;;;;;1.83;0.80;;;;;;;;;;7547823;19;20068;-74
2023/12/23 17:40:51;;;;;;;1.63;0.60;;;;;;;;;;7554897;19;20013;-74
2023/12/23 17:43:24;;;;;;;0.60;0.60;;;;;;;;;;7562745;19;20091;-74
2023/12/23 17:45:57;;;;;;;1.35;0.73;;;;;;;;;;7535281;19;20676;-76
2023/12/23 17:48:30;;;;;;;1.73;1.00;;;;;;;;;;7572380;19;20865;-75
2023/12/23 17:51:03;;;;;;;3.30;0.63;;;;;;;;;;7563512;19;20018;-73
2023/12/23 17:53:36;;;;;;;1.90;0.57;;;;;;;;;;7578183;19;21485;-73
2023/12/23 17:56:10;;;;;;;1.33;0.80;;;;;;;;;;7542726;19;20015;-73
2023/12/23 17:58:43;;;;;;;3.75;0.90;;;;;;;;;;7565063;19;20531;-72
2023/12/23 18:01:17;;;;;;;;;;;;;;;;;;7575732;19;20369;-74
2023/12/23 18:03:49;;;;;;;1.30;1.05;;;7.80;99.90;;;;;;7577207;19;19933;-74
2023/12/23 18:06:21;;;;;;;1.45;0.95;;;;;;;;;;7570707;19;20025;-73
2023/12/23 18:08:54;;;;;;;2.33;1.30;;;;;;;;;;7574023;19;20682;-74
2023/12/23 18:11:27;;;;;;;0.90;0.90;;;;;;;;;;7572169;19;20496;-73
2023/12/23 18:13:59;;;;;;;0.80;0.70;;;;;;;;;;7575482;19;20048;-75
2023/12/23 18:16:32;;;;;;;0.77;0.60;;;;;;;;;;7561425;19;20082;-73
2023/12/23 18:19:06;;;;;;;0.70;0.55;;;;;;;;;;7565080;19;20283;-73
2023/12/23 18:21:40;;;;;;;1.58;0.70;;;7.90;99.90;;;;;;7514720;19;20014;-74
2023/12/23 18:24:13;;;;;;;0.60;0.60;;;8.00;99.90;;;;;;7458662;19;20424;-73
2023/12/23 18:26:45;;;;;;;0.93;0.70;;;8.00;99.90;;;;;;7435807;19;20804;-74
2023/12/23 18:29:19;;;;;;;4.50;0.75;;;8.00;99.90;;;;;;7466957;19;20021;-74
2023/12/23 18:31:53;;;;;;;1.13;0.60;;;8.00;99.90;;;;;;7529519;19;20532;-75
2023/12/23 18:34:27;;;;;;;1.10;0.60;;;8.00;99.90;;;;;;7568534;19;20022;-75
2023/12/23 18:37:00;;;;;;;1.25;0.60;;;8.10;99.90;;;;;;7558883;19;20014;-74
2023/12/23 18:39:32;;;;;;;4.78;0.50;;;8.10;99.90;;;;;;7565581;19;20018;-75
2023/12/23 18:42:04;;;;;;;2.78;0.52;;;8.10;99.90;;;;;;7551769;19;20032;-74
2023/12/23 18:44:38;;;;;;;0.30;0.30;;;8.10;99.90;;;;;;7583247;19;20614;-75
2023/12/23 18:47:11;;;;;;;0.40;0.30;;;8.20;99.90;;;;;;7565286;19;20664;-74
2023/12/23 18:49:45;;;;;;;0.60;0.60;;;8.20;99.90;;;;;;7556673;19;20772;-74
2023/12/23 18:52:18;;;;;;;2.78;1.35;;;8.20;99.90;;;;;;7563268;19;20018;-73
2023/12/23 18:54:51;;;;;;;0.40;0.40;;;8.10;99.90;;;;;;7558313;19;20011;-72
2023/12/23 18:57:23;;;;;;;0.50;0.40;;;8.20;99.90;;;;;;7569719;19;20010;-73
2023/12/23 18:59:56;;;;;;;1.33;0.82;;;8.20;99.90;;;;;;7569984;19;20138;-75
2023/12/23 19:02:28;;;;;;;1.92;1.48;;;8.20;99.90;;;;;;7577197;19;20022;-75
2023/12/23 19:05:01;;;;;;;1.10;0.73;;;8.10;99.90;;;;;;7564980;19;20018;-76
2023/12/23 19:07:34;;;;;;;0.40;0.40;;;8.10;99.90;;;;;;7556479;19;20060;-75
2023/12/23 19:10:08;;;;;;;0.65;0.57;;;;;;;;;;7574372;19;21295;-75
2023/12/23 19:12:40;;;;;;;1.13;0.60;;;8.20;99.90;;;;;;7556333;19;21451;-75
2023/12/23 19:15:13;;;;;;;0.65;0.60;;;8.20;99.90;;;;;;7549388;19;21226;-76
2023/12/23 19:17:46;;;;;;;1.63;0.80;;;8.30;99.90;;;;;;7565870;19;20019;-76
2023/12/23 19:20:22;;;;;;;1.40;0.80;;;8.20;99.90;;;;;;7561093;19;20022;-76
2023/12/23 19:22:54;;;;;;;1.15;0.60;;;8.20;99.90;;;;;;7561151;19;21639;-76
2023/12/23 19:25:26;;;;;;;1.05;0.73;;;8.10;99.90;;;;;;7549808;19;20014;-75
2023/12/23 19:27:59;;;;;;;1.75;0.50;;;8.10;99.90;;;;;;7555482;19;20703;-75
2023/12/23 19:30:32;;;;;;;1.67;0.70;;;8.00;99.90;;;;;;7569711;19;20021;-74
2023/12/23 19:33:06;;;;;;;0.70;0.63;;;8.00;99.90;;;;;;7561930;19;20014;-74
2023/12/23 19:35:38;;;;;;;0.75;0.75;;;7.90;99.90;;;;;;7564091;19;20294;-74
2023/12/23 19:38:10;;;;;;;5.00;3.03;;;7.90;99.90;;;;;;7531671;19;20014;-73
2023/12/23 19:40:43;;;;;;;0.90;0.68;;;7.90;99.90;;;;;;7581338;19;20010;-75
2023/12/23 19:43:18;;;;;;;1.75;0.60;;;7.90;99.90;;;;;;7579511;19;20029;-74
2023/12/23 19:45:51;;;;;;;1.42;1.08;;;7.80;99.90;;;;;;7572293;19;20717;-75
2023/12/23 19:48:23;;;;;;;0.70;0.50;;;7.90;99.90;;;;;;7549488;19;23186;-73
2023/12/23 19:51:00;;;;;;;0.60;0.60;;;7.80;99.90;;;;;;7558417;19;20022;-76
2023/12/23 19:53:33;;;;;;;1.02;0.60;;;7.80;99.90;;;;;;7549190;19;20026;-75
2023/12/23 19:56:06;;;;;;;1.55;0.80;;;7.80;99.90;;;;;;7552813;19;20014;-76
2023/12/23 19:58:39;;;;;;;0.77;0.70;;;7.80;99.90;;;;;;7567701;19;20030;-75
2023/12/23 20:01:11;;;;;;;0.52;0.50;;;7.70;99.90;;;;;;7550598;19;21047;-75
2023/12/23 20:03:45;;;;;;;1.17;0.70;;;7.80;99.90;;;;;;7564324;19;20018;-75
2023/12/23 20:06:19;;;;;;;1.10;0.80;;;7.80;99.90;;;;;;7550863;19;20014;-75
2023/12/23 20:08:52;;;;;;;2.10;1.10;;;7.80;99.90;;;;;;7551075;19;20515;-75
2023/12/23 20:11:25;;;;;;;1.27;1.08;;;7.70;99.90;;;;;;7551112;19;20637;-74
2023/12/23 20:13:57;;;;;;;;;;;7.70;99.90;;;;;;7538294;19;21078;-75
2023/12/23 20:16:30;;;;;;;2.22;0.90;;;7.70;99.90;;;;;;7540426;19;19918;-75
2023/12/23 20:19:03;;;;;;;1.08;0.80;;;7.70;99.90;;;;;;7574085;19;20373;-74
2023/12/23 20:21:36;;;;;;;0.88;0.63;;;7.70;99.90;;;;;;7543603;19;20018;-75
2023/12/23 20:24:08;;;;;;;0.70;0.60;;;7.70;99.90;;;;;;7563732;19;20796;-75
2023/12/23 20:26:40;;;;;;;0.70;0.60;;;7.70;99.90;;;;;;7583541;19;20651;-75
2023/12/23 20:29:13;;;;;;;1.02;0.70;;;7.70;99.90;;;;;;7570147;19;20089;-75
2023/12/23 20:31:46;;;;;;;0.45;0.45;;;7.70;99.90;;;;;;7585080;19;20748;-75
2023/12/23 20:34:18;;;;;;;0.57;0.50;;;7.70;99.90;;;;;;7578276;19;20025;-75
2023/12/23 20:36:51;;;;;;;1.88;0.73;;;7.70;99.90;;;;;;7590890;19;20025;-76
2023/12/23 20:39:24;;;;;;;1.20;0.60;;;7.70;99.90;;;;;;7593763;19;20346;-75
2023/12/23 20:42:01;;;;;;;0.60;0.50;;;7.70;99.90;;;;;;7583999;19;20016;-76
2023/12/23 20:44:34;;;;;;;0.45;0.40;;;7.70;99.90;;;;;;7591146;19;20093;-75
2023/12/23 20:47:07;;;;;;;0.43;0.43;;;7.70;99.90;;;;;;7576057;19;20726;-76
2023/12/23 20:49:40;;;;;;;0.57;0.38;;;7.60;99.90;;;;;;7579756;19;20025;-77
2023/12/23 20:52:12;;;;;;;1.90;0.63;;;7.70;99.90;;;;;;7587648;19;20665;-75
2023/12/23 20:54:45;;;;;;;0.45;0.40;;;7.60;99.90;;;;;;7591387;19;20019;-74
2023/12/23 20:57:17;;;;;;;0.50;0.50;;;7.60;99.90;;;;;;7571410;19;20033;-75
2023/12/23 20:59:49;;;;;;;1.13;0.63;;;7.60;99.90;;;;;;7578010;19;20019;-75
2023/12/23 21:02:22;;;;;;;0.93;0.50;;;7.60;99.90;;;;;;7576090;19;20026;-75
2023/12/23 21:04:55;;;;;;;0.52;0.52;;;7.60;99.90;;;;;;7571457;19;21169;-75
2023/12/23 21:07:28;;;;;;;0.65;0.52;;;7.60;99.90;;;;;;7565359;19;20021;-74
2023/12/23 21:10:01;;;;;;;0.70;0.50;;;7.60;99.90;;;;;;7561133;19;20019;-75
2023/12/23 21:12:34;;;;;;;1.33;0.63;;;7.60;99.90;;;;;;7544141;19;20020;-74
2023/12/23 21:15:08;;;;;;;0.50;0.50;;;7.70;99.90;;;;;;7532423;19;20279;-75
2023/12/23 21:17:41;;;;;;;1.48;0.63;;;7.60;99.90;;;;;;7540908;19;21763;-73
2023/12/23 21:20:13;;;;;;;2.80;1.40;;;7.60;99.90;;;;;;7513693;19;20011;-73
2023/12/23 21:22:46;;;;;;;0.75;0.50;;;7.60;99.90;;;;;;7522152;19;21874;-74
